sensor_id;sensor_type;location;lat;lon;timestamp;temperature;humidity
21891;DHT22;11110;52.386;16.940;2023-03-04T00:01:47;16.80;43.30
21891;DHT22;11110;52.386;16.940;2023-03-04T00:04:17;16.80;43.20
21891;DHT22;11110;52.386;16.940;2023-03-04T00:06:45;16.80;43.20
21891;DHT22;11110;52.386;16.940;2023-03-04T00:09:16;16.70;43.10
21891;DHT22;11110;52.386;16.940;2023-03-04T00:11:44;16.60;43.20
21891;DHT22;11110;52.386;16.940;2023-03-04T00:14:13;16.60;43.20
21891;DHT22;11110;52.386;16.940;2023-03-04T00:16:41;16.60;43.20
21891;DHT22;11110;52.386;16.940;2023-03-04T00:19:10;16.80;42.90
21891;DHT22;11110;52.386;16.940;2023-03-04T00:21:39;16.80;42.90
21891;DHT22;11110;52.386;16.940;2023-03-04T00:24:08;16.70;43.10
21891;DHT22;11110;52.386;16.940;2023-03-04T00:26:38;16.70;43.10
21891;DHT22;11110;52.386;16.940;2023-03-04T00:29:07;16.70;43.10
21891;DHT22;11110;52.386;16.940;2023-03-04T00:31:35;16.50;43.20
21891;DHT22;11110;52.386;16.940;2023-03-04T00:34:04;16.50;43.30
21891;DHT22;11110;52.386;16.940;2023-03-04T00:36:33;16.60;43.20
21891;DHT22;11110;52.386;16.940;2023-03-04T00:39:01;16.60;43.20
21891;DHT22;11110;52.386;16.940;2023-03-04T00:41:30;16.70;43.20
21891;DHT22;11110;52.386;16.940;2023-03-04T00:44:00;16.70;43.00
21891;DHT22;11110;52.386;16.940;2023-03-04T00:46:29;16.60;43.30
21891;DHT22;11110;52.386;16.940;2023-03-04T00:48:58;16.60;43.20
21891;DHT22;11110;52.386;16.940;2023-03-04T00:51:26;16.70;43.60
21891;DHT22;11110;52.386;16.940;2023-03-04T00:53:55;16.70;43.20
21891;DHT22;11110;52.386;16.940;2023-03-04T00:56:27;16.90;42.90
21891;DHT22;11110;52.386;16.940;2023-03-04T00:58:55;16.70;42.90
21891;DHT22;11110;52.386;16.940;2023-03-04T01:01:26;16.70;42.90
21891;DHT22;11110;52.386;16.940;2023-03-04T01:03:55;16.90;42.90
21891;DHT22;11110;52.386;16.940;2023-03-04T01:06:23;16.80;42.70
21891;DHT22;11110;52.386;16.940;2023-03-04T01:08:52;16.80;42.90
21891;DHT22;11110;52.386;16.940;2023-03-04T01:11:20;16.60;43.00
21891;DHT22;11110;52.386;16.940;2023-03-04T01:13:49;16.90;42.70
21891;DHT22;11110;52.386;16.940;2023-03-04T01:16:18;17.00;42.60
21891;DHT22;11110;52.386;16.940;2023-03-04T01:18:49;16.90;42.40
21891;DHT22;11110;52.386;16.940;2023-03-04T01:21:17;16.90;42.50
21891;DHT22;11110;52.386;16.940;2023-03-04T01:23:46;17.00;42.50
21891;DHT22;11110;52.386;16.940;2023-03-04T01:26:14;16.90;42.30
21891;DHT22;11110;52.386;16.940;2023-03-04T01:28:43;17.00;42.30
21891;DHT22;11110;52.386;16.940;2023-03-04T01:31:11;16.80;42.40
21891;DHT22;11110;52.386;16.940;2023-03-04T01:33:40;16.90;42.20
21891;DHT22;11110;52.386;16.940;2023-03-04T01:36:10;16.80;42.30
21891;DHT22;11110;52.386;16.940;2023-03-04T01:38:39;16.90;42.30
21891;DHT22;11110;52.386;16.940;2023-03-04T01:41:09;16.90;42.20
21891;DHT22;11110;52.386;16.940;2023-03-04T01:43:39;17.00;41.70
21891;DHT22;11110;52.386;16.940;2023-03-04T01:46:09;16.80;41.70
21891;DHT22;11110;52.386;16.940;2023-03-04T01:48:41;16.90;42.00
21891;DHT22;11110;52.386;16.940;2023-03-04T01:51:15;16.90;42.00
21891;DHT22;11110;52.386;16.940;2023-03-04T01:53:46;16.80;42.10
21891;DHT22;11110;52.386;16.940;2023-03-04T01:56:21;16.80;42.30
21891;DHT22;11110;52.386;16.940;2023-03-04T01:59:11;16.90;42.30
21891;DHT22;11110;52.386;16.940;2023-03-04T02:01:42;16.90;42.10
21891;DHT22;11110;52.386;16.940;2023-03-04T02:04:12;17.00;42.10
21891;DHT22;11110;52.386;16.940;2023-03-04T02:06:43;16.90;41.70
21891;DHT22;11110;52.386;16.940;2023-03-04T02:09:13;16.90;42.10
21891;DHT22;11110;52.386;16.940;2023-03-04T02:11:43;16.80;42.10
21891;DHT22;11110;52.386;16.940;2023-03-04T02:14:13;17.00;42.00
21891;DHT22;11110;52.386;16.940;2023-03-04T02:16:42;16.80;41.70
21891;DHT22;11110;52.386;16.940;2023-03-04T02:19:15;16.90;41.80
21891;DHT22;11110;52.386;16.940;2023-03-04T02:21:46;16.80;41.90
21891;DHT22;11110;52.386;16.940;2023-03-04T02:24:18;16.70;41.80
21891;DHT22;11110;52.386;16.940;2023-03-04T02:26:50;16.80;42.00
21891;DHT22;11110;52.386;16.940;2023-03-04T02:29:19;16.90;41.90
21891;DHT22;11110;52.386;16.940;2023-03-04T02:31:49;16.80;42.10
21891;DHT22;11110;52.386;16.940;2023-03-04T02:34:19;16.80;42.10
21891;DHT22;11110;52.386;16.940;2023-03-04T02:36:51;16.90;42.00
21891;DHT22;11110;52.386;16.940;2023-03-04T02:39:28;16.80;42.00
21891;DHT22;11110;52.386;16.940;2023-03-04T02:42:00;16.80;42.20
21891;DHT22;11110;52.386;16.940;2023-03-04T02:44:33;16.80;42.00
21891;DHT22;11110;52.386;16.940;2023-03-04T02:47:03;16.80;41.80
21891;DHT22;11110;52.386;16.940;2023-03-04T02:49:35;16.80;41.90
21891;DHT22;11110;52.386;16.940;2023-03-04T02:52:05;16.80;41.60
21891;DHT22;11110;52.386;16.940;2023-03-04T02:54:37;16.80;41.60
21891;DHT22;11110;52.386;16.940;2023-03-04T02:57:09;16.80;41.90
21891;DHT22;11110;52.386;16.940;2023-03-04T02:59:41;16.80;41.70
21891;DHT22;11110;52.386;16.940;2023-03-04T03:02:15;16.90;41.60
21891;DHT22;11110;52.386;16.940;2023-03-04T03:04:43;16.80;41.40
21891;DHT22;11110;52.386;16.940;2023-03-04T03:07:15;16.70;41.60
21891;DHT22;11110;52.386;16.940;2023-03-04T03:09:44;16.70;41.60
21891;DHT22;11110;52.386;16.940;2023-03-04T03:12:14;16.70;41.70
21891;DHT22;11110;52.386;16.940;2023-03-04T03:14:42;16.70;41.50
21891;DHT22;11110;52.386;16.940;2023-03-04T03:17:13;16.70;41.60
21891;DHT22;11110;52.386;16.940;2023-03-04T03:19:42;16.70;41.60
21891;DHT22;11110;52.386;16.940;2023-03-04T03:22:11;16.90;41.60
21891;DHT22;11110;52.386;16.940;2023-03-04T03:24:39;16.90;41.30
21891;DHT22;11110;52.386;16.940;2023-03-04T03:27:08;17.00;41.20
21891;DHT22;11110;52.386;16.940;2023-03-04T03:29:38;16.90;41.30
21891;DHT22;11110;52.386;16.940;2023-03-04T03:32:07;16.80;41.40
21891;DHT22;11110;52.386;16.940;2023-03-04T03:34:36;17.00;41.20
21891;DHT22;11110;52.386;16.940;2023-03-04T03:37:05;16.90;41.50
21891;DHT22;11110;52.386;16.940;2023-03-04T03:39:34;17.00;41.40
21891;DHT22;11110;52.386;16.940;2023-03-04T03:42:02;16.70;41.60
21891;DHT22;11110;52.386;16.940;2023-03-04T03:44:31;17.00;41.40
21891;DHT22;11110;52.386;16.940;2023-03-04T03:47:01;17.00;41.40
21891;DHT22;11110;52.386;16.940;2023-03-04T03:49:30;17.00;41.40
21891;DHT22;11110;52.386;16.940;2023-03-04T03:51:59;17.10;41.20
21891;DHT22;11110;52.386;16.940;2023-03-04T03:54:27;17.10;41.10
21891;DHT22;11110;52.386;16.940;2023-03-04T03:56:56;17.00;41.00
21891;DHT22;11110;52.386;16.940;2023-03-04T03:59:25;17.00;40.90
21891;DHT22;11110;52.386;16.940;2023-03-04T04:01:54;16.90;41.10
21891;DHT22;11110;52.386;16.940;2023-03-04T04:04:24;16.70;41.40
21891;DHT22;11110;52.386;16.940;2023-03-04T04:06:53;16.70;41.40
21891;DHT22;11110;52.386;16.940;2023-03-04T04:09:21;16.60;41.50
21891;DHT22;11110;52.386;16.940;2023-03-04T04:11:50;16.70;41.10
21891;DHT22;11110;52.386;16.940;2023-03-04T04:14:19;16.60;41.40
21891;DHT22;11110;52.386;16.940;2023-03-04T04:16:47;16.60;41.30
21891;DHT22;11110;52.386;16.940;2023-03-04T04:19:17;16.50;41.50
21891;DHT22;11110;52.386;16.940;2023-03-04T04:21:47;16.70;41.50
21891;DHT22;11110;52.386;16.940;2023-03-04T04:24:17;16.60;41.40
21891;DHT22;11110;52.386;16.940;2023-03-04T04:26:46;16.80;41.50
21891;DHT22;11110;52.386;16.940;2023-03-04T04:29:15;16.70;41.30
21891;DHT22;11110;52.386;16.940;2023-03-04T04:31:44;16.80;41.10
21891;DHT22;11110;52.386;16.940;2023-03-04T04:34:13;16.80;41.30
21891;DHT22;11110;52.386;16.940;2023-03-04T04:36:41;16.60;41.50
21891;DHT22;11110;52.386;16.940;2023-03-04T04:39:11;16.80;41.40
21891;DHT22;11110;52.386;16.940;2023-03-04T04:41:42;16.80;41.30
21891;DHT22;11110;52.386;16.940;2023-03-04T04:44:11;16.70;41.40
21891;DHT22;11110;52.386;16.940;2023-03-04T04:46:40;16.70;41.60
21891;DHT22;11110;52.386;16.940;2023-03-04T04:49:09;17.00;41.50
21891;DHT22;11110;52.386;16.940;2023-03-04T04:51:38;17.00;41.20
21891;DHT22;11110;52.386;16.940;2023-03-04T04:54:07;16.90;40.90
21891;DHT22;11110;52.386;16.940;2023-03-04T04:56:37;16.70;41.10
21891;DHT22;11110;52.386;16.940;2023-03-04T04:59:07;16.80;41.10
21891;DHT22;11110;52.386;16.940;2023-03-04T05:01:35;16.70;41.30
21891;DHT22;11110;52.386;16.940;2023-03-04T05:04:05;16.60;41.40
21891;DHT22;11110;52.386;16.940;2023-03-04T05:06:33;16.80;42.10
21891;DHT22;11110;52.386;16.940;2023-03-04T05:09:02;16.60;41.40
21891;DHT22;11110;52.386;16.940;2023-03-04T05:11:32;16.70;41.50
21891;DHT22;11110;52.386;16.940;2023-03-04T05:14:02;16.80;41.40
21891;DHT22;11110;52.386;16.940;2023-03-04T05:16:30;16.80;41.50
21891;DHT22;11110;52.386;16.940;2023-03-04T05:18:59;16.80;41.40
21891;DHT22;11110;52.386;16.940;2023-03-04T05:21:28;16.90;41.50
21891;DHT22;11110;52.386;16.940;2023-03-04T05:23:56;17.00;41.30
21891;DHT22;11110;52.386;16.940;2023-03-04T05:26:25;17.00;41.30
21891;DHT22;11110;52.386;16.940;2023-03-04T05:28:54;16.90;41.40
21891;DHT22;11110;52.386;16.940;2023-03-04T05:31:23;16.70;41.60
21891;DHT22;11110;52.386;16.940;2023-03-04T05:33:52;17.00;41.60
21891;DHT22;11110;52.386;16.940;2023-03-04T05:36:21;17.10;41.30
21891;DHT22;11110;52.386;16.940;2023-03-04T05:38:50;17.00;41.40
21891;DHT22;11110;52.386;16.940;2023-03-04T05:41:18;16.90;41.60
21891;DHT22;11110;52.386;16.940;2023-03-04T05:43:49;16.90;41.60
21891;DHT22;11110;52.386;16.940;2023-03-04T05:46:18;17.00;41.70
21891;DHT22;11110;52.386;16.940;2023-03-04T05:48:53;16.90;41.70
21891;DHT22;11110;52.386;16.940;2023-03-04T05:51:22;16.80;41.70
21891;DHT22;11110;52.386;16.940;2023-03-04T05:53:51;17.00;41.90
21891;DHT22;11110;52.386;16.940;2023-03-04T05:56:19;17.10;41.90
21891;DHT22;11110;52.386;16.940;2023-03-04T05:58:48;16.90;41.90
21891;DHT22;11110;52.386;16.940;2023-03-04T06:01:17;16.90;41.90
21891;DHT22;11110;52.386;16.940;2023-03-04T06:03:46;17.00;41.90
21891;DHT22;11110;52.386;16.940;2023-03-04T06:06:17;16.80;42.10
21891;DHT22;11110;52.386;16.940;2023-03-04T06:08:45;17.20;41.90
21891;DHT22;11110;52.386;16.940;2023-03-04T06:11:14;16.90;41.60
21891;DHT22;11110;52.386;16.940;2023-03-04T06:13:43;17.00;42.00
21891;DHT22;11110;52.386;16.940;2023-03-04T06:16:11;17.10;41.90
21891;DHT22;11110;52.386;16.940;2023-03-04T06:18:40;17.00;41.80
21891;DHT22;11110;52.386;16.940;2023-03-04T06:21:09;16.80;42.00
21891;DHT22;11110;52.386;16.940;2023-03-04T06:23:39;16.80;42.80
21891;DHT22;11110;52.386;16.940;2023-03-04T06:26:08;17.00;42.20
21891;DHT22;11110;52.386;16.940;2023-03-04T06:28:42;17.30;42.20
21891;DHT22;11110;52.386;16.940;2023-03-04T06:31:10;17.20;42.00
21891;DHT22;11110;52.386;16.940;2023-03-04T06:33:39;17.00;42.00
21891;DHT22;11110;52.386;16.940;2023-03-04T06:36:07;17.20;42.00
21891;DHT22;11110;52.386;16.940;2023-03-04T06:38:36;16.60;41.90
21891;DHT22;11110;52.386;16.940;2023-03-04T06:41:07;17.30;42.30
21891;DHT22;11110;52.386;16.940;2023-03-04T06:43:36;17.20;42.30
21891;DHT22;11110;52.386;16.940;2023-03-04T06:46:05;17.20;42.30
21891;DHT22;11110;52.386;16.940;2023-03-04T06:48:35;17.30;42.20
21891;DHT22;11110;52.386;16.940;2023-03-04T06:51:07;17.40;42.10
21891;DHT22;11110;52.386;16.940;2023-03-04T06:53:37;17.30;42.20
21891;DHT22;11110;52.386;16.940;2023-03-04T06:56:09;17.30;42.20
21891;DHT22;11110;52.386;16.940;2023-03-04T06:58:38;17.50;42.10
21891;DHT22;11110;52.386;16.940;2023-03-04T07:01:11;17.40;42.20
21891;DHT22;11110;52.386;16.940;2023-03-04T07:03:41;17.30;42.20
21891;DHT22;11110;52.386;16.940;2023-03-04T07:06:11;17.50;42.50
21891;DHT22;11110;52.386;16.940;2023-03-04T07:08:41;17.60;42.20
21891;DHT22;11110;52.386;16.940;2023-03-04T07:11:11;17.40;42.30
21891;DHT22;11110;52.386;16.940;2023-03-04T07:13:40;17.30;42.60
21891;DHT22;11110;52.386;16.940;2023-03-04T07:16:10;17.20;42.60
21891;DHT22;11110;52.386;16.940;2023-03-04T07:18:40;17.30;42.80
21891;DHT22;11110;52.386;16.940;2023-03-04T07:21:08;17.50;42.70
21891;DHT22;11110;52.386;16.940;2023-03-04T07:23:38;17.50;42.60
21891;DHT22;11110;52.386;16.940;2023-03-04T07:26:07;17.60;42.50
21891;DHT22;11110;52.386;16.940;2023-03-04T07:28:37;17.50;42.60
21891;DHT22;11110;52.386;16.940;2023-03-04T07:31:10;17.60;42.70
21891;DHT22;11110;52.386;16.940;2023-03-04T07:33:40;17.70;42.50
21891;DHT22;11110;52.386;16.940;2023-03-04T07:36:08;17.40;42.70
21891;DHT22;11110;52.386;16.940;2023-03-04T07:38:37;17.40;42.80
21891;DHT22;11110;52.386;16.940;2023-03-04T07:41:06;17.60;42.60
21891;DHT22;11110;52.386;16.940;2023-03-04T07:43:36;17.50;42.70
21891;DHT22;11110;52.386;16.940;2023-03-04T07:46:04;17.60;42.70
21891;DHT22;11110;52.386;16.940;2023-03-04T07:48:34;17.60;42.60
21891;DHT22;11110;52.386;16.940;2023-03-04T07:51:05;17.50;42.60
21891;DHT22;11110;52.386;16.940;2023-03-04T07:53:35;17.60;42.70
21891;DHT22;11110;52.386;16.940;2023-03-04T07:56:06;17.70;42.70
21891;DHT22;11110;52.386;16.940;2023-03-04T07:58:36;17.80;42.50
21891;DHT22;11110;52.386;16.940;2023-03-04T08:01:08;17.80;42.40
21891;DHT22;11110;52.386;16.940;2023-03-04T08:03:37;17.70;42.50
21891;DHT22;11110;52.386;16.940;2023-03-04T08:06:07;17.50;42.90
21891;DHT22;11110;52.386;16.940;2023-03-04T08:08:36;17.70;42.80
21891;DHT22;11110;52.386;16.940;2023-03-04T08:11:05;17.80;42.80
21891;DHT22;11110;52.386;16.940;2023-03-04T08:13:34;17.70;42.70
21891;DHT22;11110;52.386;16.940;2023-03-04T08:16:05;17.70;42.80
21891;DHT22;11110;52.386;16.940;2023-03-04T08:18:34;17.90;43.00
21891;DHT22;11110;52.386;16.940;2023-03-04T08:21:07;17.70;42.80
21891;DHT22;11110;52.386;16.940;2023-03-04T08:23:36;18.00;42.70
21891;DHT22;11110;52.386;16.940;2023-03-04T08:26:06;18.00;42.60
21891;DHT22;11110;52.386;16.940;2023-03-04T08:28:35;17.80;42.80
21891;DHT22;11110;52.386;16.940;2023-03-04T08:31:05;17.90;42.90
21891;DHT22;11110;52.386;16.940;2023-03-04T08:33:34;17.90;43.00
21891;DHT22;11110;52.386;16.940;2023-03-04T08:36:04;17.90;42.90
21891;DHT22;11110;52.386;16.940;2023-03-04T08:38:33;17.90;43.00
21891;DHT22;11110;52.386;16.940;2023-03-04T08:41:02;17.90;43.20
21891;DHT22;11110;52.386;16.940;2023-03-04T08:43:31;17.90;43.30
21891;DHT22;11110;52.386;16.940;2023-03-04T08:46:01;18.10;43.20
21891;DHT22;11110;52.386;16.940;2023-03-04T08:48:31;18.00;43.10
21891;DHT22;11110;52.386;16.940;2023-03-04T08:51:00;18.00;43.40
21891;DHT22;11110;52.386;16.940;2023-03-04T08:53:29;18.10;43.30
21891;DHT22;11110;52.386;16.940;2023-03-04T08:55:57;18.10;43.50
21891;DHT22;11110;52.386;16.940;2023-03-04T08:58:26;18.00;43.60
21891;DHT22;11110;52.386;16.940;2023-03-04T09:00:55;18.20;43.90
21891;DHT22;11110;52.386;16.940;2023-03-04T09:03:24;18.30;43.70
21891;DHT22;11110;52.386;16.940;2023-03-04T09:05:54;18.20;43.70
21891;DHT22;11110;52.386;16.940;2023-03-04T09:08:23;18.10;43.80
21891;DHT22;11110;52.386;16.940;2023-03-04T09:10:52;18.10;44.80
21891;DHT22;11110;52.386;16.940;2023-03-04T09:13:22;18.20;44.20
21891;DHT22;11110;52.386;16.940;2023-03-04T09:15:52;18.10;44.10
21891;DHT22;11110;52.386;16.940;2023-03-04T09:18:22;18.30;44.20
21891;DHT22;11110;52.386;16.940;2023-03-04T09:20:52;18.30;44.30
21891;DHT22;11110;52.386;16.940;2023-03-04T09:23:22;18.30;44.50
21891;DHT22;11110;52.386;16.940;2023-03-04T09:25:50;18.50;44.50
21891;DHT22;11110;52.386;16.940;2023-03-04T09:28:19;18.40;44.50
21891;DHT22;11110;52.386;16.940;2023-03-04T09:30:48;18.30;44.60
21891;DHT22;11110;52.386;16.940;2023-03-04T09:33:17;18.40;44.80
21891;DHT22;11110;52.386;16.940;2023-03-04T09:35:45;18.30;44.90
21891;DHT22;11110;52.386;16.940;2023-03-04T09:38:16;18.50;44.90
21891;DHT22;11110;52.386;16.940;2023-03-04T09:40:47;18.40;44.80
21891;DHT22;11110;52.386;16.940;2023-03-04T09:43:19;18.60;44.70
21891;DHT22;11110;52.386;16.940;2023-03-04T09:45:52;18.70;44.80
21891;DHT22;11110;52.386;16.940;2023-03-04T09:48:25;18.50;44.70
21891;DHT22;11110;52.386;16.940;2023-03-04T09:51:10;18.50;44.90
21891;DHT22;11110;52.386;16.940;2023-03-04T09:53:48;18.50;44.90
21891;DHT22;11110;52.386;16.940;2023-03-04T09:56:22;18.60;45.10
21891;DHT22;11110;52.386;16.940;2023-03-04T09:58:58;18.50;45.00
21891;DHT22;11110;52.386;16.940;2023-03-04T10:01:34;18.60;45.20
21891;DHT22;11110;52.386;16.940;2023-03-04T10:04:11;18.50;45.30
21891;DHT22;11110;52.386;16.940;2023-03-04T10:06:41;18.60;45.40
21891;DHT22;11110;52.386;16.940;2023-03-04T10:09:15;18.80;45.30
21891;DHT22;11110;52.386;16.940;2023-03-04T10:11:48;18.80;45.10
21891;DHT22;11110;52.386;16.940;2023-03-04T10:14:32;18.80;44.90
21891;DHT22;11110;52.386;16.940;2023-03-04T10:17:06;18.80;45.10
21891;DHT22;11110;52.386;16.940;2023-03-04T10:19:47;18.70;45.10
21891;DHT22;11110;52.386;16.940;2023-03-04T10:22:24;18.80;44.90
21891;DHT22;11110;52.386;16.940;2023-03-04T10:24:56;18.90;44.70
21891;DHT22;11110;52.386;16.940;2023-03-04T10:27:26;18.80;44.90
21891;DHT22;11110;52.386;16.940;2023-03-04T10:29:59;18.80;45.00
21891;DHT22;11110;52.386;16.940;2023-03-04T10:32:28;18.80;44.60
21891;DHT22;11110;52.386;16.940;2023-03-04T10:34:56;19.00;44.50
21891;DHT22;11110;52.386;16.940;2023-03-04T10:37:43;19.10;44.00
21891;DHT22;11110;52.386;16.940;2023-03-04T10:40:21;19.00;43.80
21891;DHT22;11110;52.386;16.940;2023-03-04T10:42:51;19.10;43.70
21891;DHT22;11110;52.386;16.940;2023-03-04T10:45:23;18.90;43.60
21891;DHT22;11110;52.386;16.940;2023-03-04T10:47:53;18.90;43.70
21891;DHT22;11110;52.386;16.940;2023-03-04T10:50:23;19.00;43.40
21891;DHT22;11110;52.386;16.940;2023-03-04T10:52:53;18.90;42.80
21891;DHT22;11110;52.386;16.940;2023-03-04T10:55:24;18.80;43.60
21891;DHT22;11110;52.386;16.940;2023-03-04T10:58:01;18.90;43.60
21891;DHT22;11110;52.386;16.940;2023-03-04T11:00:32;19.20;43.00
21891;DHT22;11110;52.386;16.940;2023-03-04T11:03:21;19.10;42.50
21891;DHT22;11110;52.386;16.940;2023-03-04T11:05:50;19.20;42.30
21891;DHT22;11110;52.386;16.940;2023-03-04T11:08:21;19.20;42.30
21891;DHT22;11110;52.386;16.940;2023-03-04T11:10:50;19.30;42.00
21891;DHT22;11110;52.386;16.940;2023-03-04T11:13:21;19.40;42.00
21891;DHT22;11110;52.386;16.940;2023-03-04T11:15:53;19.30;41.90
21891;DHT22;11110;52.386;16.940;2023-03-04T11:18:29;19.40;42.20
21891;DHT22;11110;52.386;16.940;2023-03-04T11:21:00;19.30;42.00
21891;DHT22;11110;52.386;16.940;2023-03-04T11:23:34;19.50;41.30
21891;DHT22;11110;52.386;16.940;2023-03-04T11:26:07;19.50;41.30
21891;DHT22;11110;52.386;16.940;2023-03-04T11:28:42;19.60;41.10
21891;DHT22;11110;52.386;16.940;2023-03-04T11:31:15;19.40;41.00
21891;DHT22;11110;52.386;16.940;2023-03-04T11:33:49;19.50;41.40
21891;DHT22;11110;52.386;16.940;2023-03-04T11:36:27;19.60;41.30
21891;DHT22;11110;52.386;16.940;2023-03-04T11:38:57;19.50;41.40
21891;DHT22;11110;52.386;16.940;2023-03-04T11:41:29;19.70;41.20
21891;DHT22;11110;52.386;16.940;2023-03-04T11:44:00;19.70;41.10
21891;DHT22;11110;52.386;16.940;2023-03-04T11:52:47;19.70;40.80
21891;DHT22;11110;52.386;16.940;2023-03-04T11:55:33;19.70;40.40
21891;DHT22;11110;52.386;16.940;2023-03-04T11:58:16;19.70;40.60
21891;DHT22;11110;52.386;16.940;2023-03-04T12:00:53;19.70;40.90
21891;DHT22;11110;52.386;16.940;2023-03-04T12:03:49;19.80;40.80
21891;DHT22;11110;52.386;16.940;2023-03-04T12:06:30;19.70;40.90
21891;DHT22;11110;52.386;16.940;2023-03-04T12:09:13;19.70;40.90
21891;DHT22;11110;52.386;16.940;2023-03-04T12:11:52;19.90;40.50
21891;DHT22;11110;52.386;16.940;2023-03-04T12:14:29;19.80;39.80
21891;DHT22;11110;52.386;16.940;2023-03-04T12:17:12;19.80;40.00
21891;DHT22;11110;52.386;16.940;2023-03-04T12:19:58;19.90;40.00
21891;DHT22;11110;52.386;16.940;2023-03-04T12:22:39;19.80;40.30
21891;DHT22;11110;52.386;16.940;2023-03-04T12:25:36;19.80;40.20
21891;DHT22;11110;52.386;16.940;2023-03-04T12:28:24;19.80;39.40
21891;DHT22;11110;52.386;16.940;2023-03-04T12:31:16;19.60;38.90
21891;DHT22;11110;52.386;16.940;2023-03-04T12:36:50;19.60;39.70
21891;DHT22;11110;52.386;16.940;2023-03-04T12:39:27;19.60;39.70
21891;DHT22;11110;52.386;16.940;2023-03-04T12:42:06;19.60;39.40
21891;DHT22;11110;52.386;16.940;2023-03-04T12:44:43;19.70;39.20
21891;DHT22;11110;52.386;16.940;2023-03-04T12:47:26;19.50;39.10
21891;DHT22;11110;52.386;16.940;2023-03-04T12:50:14;19.50;38.80
21891;DHT22;11110;52.386;16.940;2023-03-04T12:52:54;19.50;38.80
21891;DHT22;11110;52.386;16.940;2023-03-04T12:55:35;19.50;38.60
21891;DHT22;11110;52.386;16.940;2023-03-04T12:58:05;19.50;38.20
21891;DHT22;11110;52.386;16.940;2023-03-04T13:00:43;19.30;38.50
21891;DHT22;11110;52.386;16.940;2023-03-04T13:03:19;19.30;38.90
21891;DHT22;11110;52.386;16.940;2023-03-04T13:06:02;19.20;39.20
21891;DHT22;11110;52.386;16.940;2023-03-04T13:08:38;19.40;39.30
21891;DHT22;11110;52.386;16.940;2023-03-04T13:14:25;19.00;40.10
21891;DHT22;11110;52.386;16.940;2023-03-04T13:16:55;18.70;41.10
21891;DHT22;11110;52.386;16.940;2023-03-04T13:19:48;18.70;42.20
21891;DHT22;11110;52.386;16.940;2023-03-04T13:22:31;18.70;42.60
21891;DHT22;11110;52.386;16.940;2023-03-04T13:27:47;18.60;42.30
21891;DHT22;11110;52.386;16.940;2023-03-04T13:30:39;18.50;42.40
21891;DHT22;11110;52.386;16.940;2023-03-04T13:39:34;18.50;42.20
21891;DHT22;11110;52.386;16.940;2023-03-04T13:44:58;18.30;42.20
21891;DHT22;11110;52.386;16.940;2023-03-04T13:50:27;18.40;42.20
21891;DHT22;11110;52.386;16.940;2023-03-04T13:58:43;18.70;41.40
21891;DHT22;11110;52.386;16.940;2023-03-04T14:01:24;18.60;41.30
21891;DHT22;11110;52.386;16.940;2023-03-04T14:03:53;18.50;41.90
21891;DHT22;11110;52.386;16.940;2023-03-04T14:06:24;18.30;41.70
21891;DHT22;11110;52.386;16.940;2023-03-04T14:08:54;18.20;42.00
21891;DHT22;11110;52.386;16.940;2023-03-04T14:11:32;18.40;42.30
21891;DHT22;11110;52.386;16.940;2023-03-04T14:14:05;18.40;42.30
21891;DHT22;11110;52.386;16.940;2023-03-04T14:16:37;18.40;42.40
21891;DHT22;11110;52.386;16.940;2023-03-04T14:19:15;18.60;42.00
21891;DHT22;11110;52.386;16.940;2023-03-04T14:21:45;18.60;42.00
21891;DHT22;11110;52.386;16.940;2023-03-04T14:24:15;18.50;40.40
21891;DHT22;11110;52.386;16.940;2023-03-04T14:26:46;18.40;39.70
21891;DHT22;11110;52.386;16.940;2023-03-04T14:29:21;18.70;38.50
21891;DHT22;11110;52.386;16.940;2023-03-04T14:31:50;18.40;38.40
21891;DHT22;11110;52.386;16.940;2023-03-04T14:34:29;18.50;36.60
21891;DHT22;11110;52.386;16.940;2023-03-04T14:36:59;18.50;36.40
21891;DHT22;11110;52.386;16.940;2023-03-04T14:39:31;18.40;36.70
21891;DHT22;11110;52.386;16.940;2023-03-04T14:42:09;18.40;35.50
21891;DHT22;11110;52.386;16.940;2023-03-04T14:44:41;18.50;35.00
21891;DHT22;11110;52.386;16.940;2023-03-04T14:47:17;18.40;35.70
21891;DHT22;11110;52.386;16.940;2023-03-04T14:49:47;18.50;35.90
21891;DHT22;11110;52.386;16.940;2023-03-04T14:52:32;18.60;35.90
21891;DHT22;11110;52.386;16.940;2023-03-04T14:55:15;18.60;35.70
21891;DHT22;11110;52.386;16.940;2023-03-04T14:57:47;18.60;35.50
21891;DHT22;11110;52.386;16.940;2023-03-04T15:00:26;18.50;36.00
21891;DHT22;11110;52.386;16.940;2023-03-04T15:02:56;18.40;36.40
21891;DHT22;11110;52.386;16.940;2023-03-04T15:05:28;18.60;36.80
21891;DHT22;11110;52.386;16.940;2023-03-04T15:07:58;18.70;36.80
21891;DHT22;11110;52.386;16.940;2023-03-04T15:10:29;18.60;36.70
21891;DHT22;11110;52.386;16.940;2023-03-04T15:13:01;18.70;36.60
21891;DHT22;11110;52.386;16.940;2023-03-04T15:15:34;18.70;36.60
21891;DHT22;11110;52.386;16.940;2023-03-04T15:18:13;18.70;36.30
21891;DHT22;11110;52.386;16.940;2023-03-04T15:20:55;18.60;36.20
21891;DHT22;11110;52.386;16.940;2023-03-04T15:23:24;18.70;36.20
21891;DHT22;11110;52.386;16.940;2023-03-04T15:25:54;18.60;36.00
21891;DHT22;11110;52.386;16.940;2023-03-04T15:28:27;18.70;36.20
21891;DHT22;11110;52.386;16.940;2023-03-04T15:30:57;18.60;36.50
21891;DHT22;11110;52.386;16.940;2023-03-04T15:33:26;18.60;36.70
21891;DHT22;11110;52.386;16.940;2023-03-04T15:35:56;18.60;37.70
21891;DHT22;11110;52.386;16.940;2023-03-04T15:38:26;18.50;37.10
21891;DHT22;11110;52.386;16.940;2023-03-04T15:40:55;18.70;37.40
21891;DHT22;11110;52.386;16.940;2023-03-04T15:43:27;18.60;37.40
21891;DHT22;11110;52.386;16.940;2023-03-04T15:45:55;18.60;37.60
21891;DHT22;11110;52.386;16.940;2023-03-04T15:48:24;18.60;37.80
21891;DHT22;11110;52.386;16.940;2023-03-04T15:50:55;18.60;37.80
21891;DHT22;11110;52.386;16.940;2023-03-04T15:53:29;18.70;37.90
21891;DHT22;11110;52.386;16.940;2023-03-04T15:56:00;18.60;38.00
21891;DHT22;11110;52.386;16.940;2023-03-04T15:58:31;18.50;38.10
21891;DHT22;11110;52.386;16.940;2023-03-04T16:01:01;18.50;38.40
21891;DHT22;11110;52.386;16.940;2023-03-04T16:03:30;18.70;38.30
21891;DHT22;11110;52.386;16.940;2023-03-04T16:05:59;18.60;38.20
21891;DHT22;11110;52.386;16.940;2023-03-04T16:08:28;18.60;38.20
21891;DHT22;11110;52.386;16.940;2023-03-04T16:10:56;18.50;38.30
21891;DHT22;11110;52.386;16.940;2023-03-04T16:13:25;18.60;38.00
21891;DHT22;11110;52.386;16.940;2023-03-04T16:15:55;18.50;37.90